sensor_id;sensor_type;location;lat;lon;timestamp;P1;durP1;ratioP1;P2;durP2;ratioP2
54945;SDS011;40846;44.788;20.486;2022-12-29T00:00:10;47.72;;;20.50;;
54945;SDS011;40846;44.788;20.486;2022-12-29T00:02:37;38.25;;;19.92;;
54945;SDS011;40846;44.788;20.486;2022-12-29T00:05:03;43.85;;;19.27;;
54945;SDS011;40846;44.788;20.486;2022-12-29T00:07:29;39.97;;;20.10;;
54945;SDS011;40846;44.788;20.486;2022-12-29T00:09:55;41.88;;;18.98;;
54945;SDS011;40846;44.788;20.486;2022-12-29T00:12:21;42.08;;;19.55;;
54945;SDS011;40846;44.788;20.486;2022-12-29T00:14:47;54.05;;;22.15;;
54945;SDS011;40846;44.788;20.486;2022-12-29T00:17:32;40.25;;;19.33;;
54945;SDS011;40846;44.788;20.486;2022-12-29T00:19:58;40.72;;;19.83;;
54945;SDS011;40846;44.788;20.486;2022-12-29T00:22:51;41.13;;;19.48;;
54945;SDS011;40846;44.788;20.486;2022-12-29T00:25:36;46.97;;;20.65;;
54945;SDS011;40846;44.788;20.486;2022-12-29T00:28:20;42.38;;;20.05;;
54945;SDS011;40846;44.788;20.486;2022-12-29T00:31:18;36.08;;;18.98;;
54945;SDS011;40846;44.788;20.486;2022-12-29T00:34:03;41.70;;;20.48;;
54945;SDS011;40846;44.788;20.486;2022-12-29T00:36:47;42.17;;;20.27;;
54945;SDS011;40846;44.788;20.486;2022-12-29T00:39:13;45.22;;;20.70;;
54945;SDS011;40846;44.788;20.486;2022-12-29T00:42:07;43.45;;;20.13;;
54945;SDS011;40846;44.788;20.486;2022-12-29T00:44:52;46.08;;;20.48;;
54945;SDS011;40846;44.788;20.486;2022-12-29T00:47:18;44.08;;;20.05;;
54945;SDS011;40846;44.788;20.486;2022-12-29T00:49:44;35.53;;;19.40;;
54945;SDS011;40846;44.788;20.486;2022-12-29T00:52:10;39.75;;;19.52;;
54945;SDS011;40846;44.788;20.486;2022-12-29T00:54:38;38.58;;;19.02;;
54945;SDS011;40846;44.788;20.486;2022-12-29T00:57:06;40.47;;;19.02;;
54945;SDS011;40846;44.788;20.486;2022-12-29T00:59:34;35.13;;;18.50;;
54945;SDS011;40846;44.788;20.486;2022-12-29T01:02:03;38.13;;;17.60;;
54945;SDS011;40846;44.788;20.486;2022-12-29T01:07:43;33.35;;;17.52;;
54945;SDS011;40846;44.788;20.486;2022-12-29T01:10:19;37.05;;;18.33;;
54945;SDS011;40846;44.788;20.486;2022-12-29T01:12:47;33.75;;;18.75;;
54945;SDS011;40846;44.788;20.486;2022-12-29T01:15:14;34.40;;;18.58;;
54945;SDS011;40846;44.788;20.486;2022-12-29T01:17:40;37.67;;;19.20;;
54945;SDS011;40846;44.788;20.486;2022-12-29T01:20:06;33.75;;;18.95;;
54945;SDS011;40846;44.788;20.486;2022-12-29T01:22:32;44.00;;;19.20;;
54945;SDS011;40846;44.788;20.486;2022-12-29T01:24:58;36.28;;;19.42;;
54945;SDS011;40846;44.788;20.486;2022-12-29T01:27:24;37.28;;;17.83;;
54945;SDS011;40846;44.788;20.486;2022-12-29T01:29:50;36.30;;;18.60;;
54945;SDS011;40846;44.788;20.486;2022-12-29T01:32:15;35.42;;;18.13;;
54945;SDS011;40846;44.788;20.486;2022-12-29T01:34:41;34.95;;;17.50;;
54945;SDS011;40846;44.788;20.486;2022-12-29T01:37:07;37.25;;;18.15;;
54945;SDS011;40846;44.788;20.486;2022-12-29T01:39:33;33.38;;;17.98;;
54945;SDS011;40846;44.788;20.486;2022-12-29T01:41:59;32.58;;;18.45;;
54945;SDS011;40846;44.788;20.486;2022-12-29T01:47:17;39.47;;;20.23;;
54945;SDS011;40846;44.788;20.486;2022-12-29T01:49:54;36.65;;;18.90;;
54945;SDS011;40846;44.788;20.486;2022-12-29T01:52:22;36.80;;;18.85;;
54945;SDS011;40846;44.788;20.486;2022-12-29T01:54:52;44.55;;;19.08;;
54945;SDS011;40846;44.788;20.486;2022-12-29T01:57:20;37.72;;;19.02;;
54945;SDS011;40846;44.788;20.486;2022-12-29T01:59:51;39.08;;;18.13;;
54945;SDS011;40846;44.788;20.486;2022-12-29T02:02:21;36.72;;;19.67;;
54945;SDS011;40846;44.788;20.486;2022-12-29T02:04:48;44.33;;;18.85;;
54945;SDS011;40846;44.788;20.486;2022-12-29T02:07:16;42.03;;;19.02;;
54945;SDS011;40846;44.788;20.486;2022-12-29T02:09:46;32.53;;;18.35;;
54945;SDS011;40846;44.788;20.486;2022-12-29T02:12:14;37.45;;;19.48;;
54945;SDS011;40846;44.788;20.486;2022-12-29T02:14:39;39.15;;;18.80;;
54945;SDS011;40846;44.788;20.486;2022-12-29T02:17:08;40.83;;;19.95;;
54945;SDS011;40846;44.788;20.486;2022-12-29T02:27:46;39.30;;;21.08;;
54945;SDS011;40846;44.788;20.486;2022-12-29T02:33:12;41.25;;;19.52;;
54945;SDS011;40846;44.788;20.486;2022-12-29T02:41:26;42.08;;;21.55;;
54945;SDS011;40846;44.788;20.486;2022-12-29T02:49:45;42.67;;;19.50;;
54945;SDS011;40846;44.788;20.486;2022-12-29T02:52:11;40.25;;;18.50;;
54945;SDS011;40846;44.788;20.486;2022-12-29T02:54:41;32.33;;;17.88;;
54945;SDS011;40846;44.788;20.486;2022-12-29T02:57:26;35.17;;;18.67;;
54945;SDS011;40846;44.788;20.486;2022-12-29T03:00:10;38.38;;;19.30;;
54945;SDS011;40846;44.788;20.486;2022-12-29T03:02:55;36.78;;;19.02;;
54945;SDS011;40846;44.788;20.486;2022-12-29T03:11:06;37.17;;;18.95;;
54945;SDS011;40846;44.788;20.486;2022-12-29T03:14:14;40.20;;;18.87;;
54945;SDS011;40846;44.788;20.486;2022-12-29T03:17:11;36.30;;;18.73;;
54945;SDS011;40846;44.788;20.486;2022-12-29T03:19:51;41.53;;;18.77;;
54945;SDS011;40846;44.788;20.486;2022-12-29T03:22:22;36.72;;;18.38;;
54945;SDS011;40846;44.788;20.486;2022-12-29T03:24:59;47.35;;;18.23;;
54945;SDS011;40846;44.788;20.486;2022-12-29T03:27:41;38.55;;;19.27;;
54945;SDS011;40846;44.788;20.486;2022-12-29T03:30:48;40.22;;;19.42;;
54945;SDS011;40846;44.788;20.486;2022-12-29T03:33:15;35.90;;;18.25;;
54945;SDS011;40846;44.788;20.486;2022-12-29T03:48:47;42.58;;;17.13;;
54945;SDS011;40846;44.788;20.486;2022-12-29T03:51:12;39.72;;;19.33;;
54945;SDS011;40846;44.788;20.486;2022-12-29T03:53:38;44.70;;;18.83;;
54945;SDS011;40846;44.788;20.486;2022-12-29T03:56:04;35.88;;;18.52;;
54945;SDS011;40846;44.788;20.486;2022-12-29T03:58:30;35.72;;;17.25;;
54945;SDS011;40846;44.788;20.486;2022-12-29T04:00:56;35.30;;;17.80;;
54945;SDS011;40846;44.788;20.486;2022-12-29T04:03:22;42.42;;;17.98;;
54945;SDS011;40846;44.788;20.486;2022-12-29T04:05:48;38.60;;;16.90;;
54945;SDS011;40846;44.788;20.486;2022-12-29T04:08:13;32.72;;;16.52;;
54945;SDS011;40846;44.788;20.486;2022-12-29T04:13:32;37.85;;;16.58;;
54945;SDS011;40846;44.788;20.486;2022-12-29T04:15:58;37.20;;;15.65;;
54945;SDS011;40846;44.788;20.486;2022-12-29T04:18:23;35.67;;;17.98;;
54945;SDS011;40846;44.788;20.486;2022-12-29T04:20:49;31.40;;;16.17;;
54945;SDS011;40846;44.788;20.486;2022-12-29T04:23:29;33.00;;;15.68;;
54945;SDS011;40846;44.788;20.486;2022-12-29T04:25:56;34.13;;;16.38;;
54945;SDS011;40846;44.788;20.486;2022-12-29T04:28:21;28.73;;;15.00;;
54945;SDS011;40846;44.788;20.486;2022-12-29T04:30:49;31.65;;;15.63;;
54945;SDS011;40846;44.788;20.486;2022-12-29T04:33:14;30.13;;;16.40;;
54945;SDS011;40846;44.788;20.486;2022-12-29T04:35:41;39.17;;;17.63;;
54945;SDS011;40846;44.788;20.486;2022-12-29T04:38:08;31.75;;;15.23;;
54945;SDS011;40846;44.788;20.486;2022-12-29T04:40:34;26.27;;;15.35;;
54945;SDS011;40846;44.788;20.486;2022-12-29T04:42:59;27.50;;;13.90;;
54945;SDS011;40846;44.788;20.486;2022-12-29T04:45:25;36.85;;;16.77;;
54945;SDS011;40846;44.788;20.486;2022-12-29T04:47:53;26.15;;;13.73;;
54945;SDS011;40846;44.788;20.486;2022-12-29T04:50:19;30.05;;;14.20;;
54945;SDS011;40846;44.788;20.486;2022-12-29T04:52:45;24.55;;;13.50;;
54945;SDS011;40846;44.788;20.486;2022-12-29T04:55:11;25.80;;;14.07;;
54945;SDS011;40846;44.788;20.486;2022-12-29T04:57:36;23.27;;;13.02;;
54945;SDS011;40846;44.788;20.486;2022-12-29T05:00:02;29.00;;;15.00;;
54945;SDS011;40846;44.788;20.486;2022-12-29T05:02:29;32.50;;;15.32;;
54945;SDS011;40846;44.788;20.486;2022-12-29T05:04:54;27.88;;;14.48;;
54945;SDS011;40846;44.788;20.486;2022-12-29T05:07:20;49.08;;;20.65;;
54945;SDS011;40846;44.788;20.486;2022-12-29T05:09:46;37.58;;;16.75;;
54945;SDS011;40846;44.788;20.486;2022-12-29T05:12:12;33.88;;;16.20;;
54945;SDS011;40846;44.788;20.486;2022-12-29T05:14:38;29.27;;;14.55;;
54945;SDS011;40846;44.788;20.486;2022-12-29T05:17:04;28.35;;;14.05;;
54945;SDS011;40846;44.788;20.486;2022-12-29T05:19:30;30.83;;;14.95;;
54945;SDS011;40846;44.788;20.486;2022-12-29T05:21:56;32.65;;;14.85;;
54945;SDS011;40846;44.788;20.486;2022-12-29T05:24:22;27.42;;;13.48;;
54945;SDS011;40846;44.788;20.486;2022-12-29T05:26:48;27.60;;;14.50;;
54945;SDS011;40846;44.788;20.486;2022-12-29T05:29:14;26.02;;;14.50;;
54945;SDS011;40846;44.788;20.486;2022-12-29T05:31:41;30.33;;;14.20;;
54945;SDS011;40846;44.788;20.486;2022-12-29T05:34:07;26.85;;;13.38;;
54945;SDS011;40846;44.788;20.486;2022-12-29T05:36:33;32.28;;;14.23;;
54945;SDS011;40846;44.788;20.486;2022-12-29T05:38:59;26.08;;;13.20;;
54945;SDS011;40846;44.788;20.486;2022-12-29T05:41:25;27.30;;;13.43;;
54945;SDS011;40846;44.788;20.486;2022-12-29T05:43:51;28.08;;;14.68;;
54945;SDS011;40846;44.788;20.486;2022-12-29T05:46:17;29.95;;;13.68;;
54945;SDS011;40846;44.788;20.486;2022-12-29T05:48:43;22.85;;;12.38;;
54945;SDS011;40846;44.788;20.486;2022-12-29T05:51:09;32.55;;;15.88;;
54945;SDS011;40846;44.788;20.486;2022-12-29T05:53:35;36.72;;;16.67;;
54945;SDS011;40846;44.788;20.486;2022-12-29T05:56:02;28.23;;;16.42;;
54945;SDS011;40846;44.788;20.486;2022-12-29T05:58:28;35.88;;;17.25;;
54945;SDS011;40846;44.788;20.486;2022-12-29T06:00:54;40.90;;;16.90;;
54945;SDS011;40846;44.788;20.486;2022-12-29T06:03:20;35.83;;;15.75;;
54945;SDS011;40846;44.788;20.486;2022-12-29T06:05:46;33.15;;;16.30;;
54945;SDS011;40846;44.788;20.486;2022-12-29T06:08:12;39.47;;;16.02;;
54945;SDS011;40846;44.788;20.486;2022-12-29T06:10:38;40.38;;;16.48;;
54945;SDS011;40846;44.788;20.486;2022-12-29T06:13:05;46.65;;;18.00;;
54945;SDS011;40846;44.788;20.486;2022-12-29T06:15:31;36.47;;;16.50;;
54945;SDS011;40846;44.788;20.486;2022-12-29T06:17:58;35.58;;;17.70;;
54945;SDS011;40846;44.788;20.486;2022-12-29T06:20:24;48.78;;;19.08;;
54945;SDS011;40846;44.788;20.486;2022-12-29T06:22:50;37.67;;;19.48;;
54945;SDS011;40846;44.788;20.486;2022-12-29T06:25:17;37.00;;;17.25;;
54945;SDS011;40846;44.788;20.486;2022-12-29T06:27:43;40.75;;;18.58;;
54945;SDS011;40846;44.788;20.486;2022-12-29T06:30:09;49.83;;;22.52;;
54945;SDS011;40846;44.788;20.486;2022-12-29T06:32:36;62.17;;;26.35;;
54945;SDS011;40846;44.788;20.486;2022-12-29T06:35:02;55.83;;;24.23;;
54945;SDS011;40846;44.788;20.486;2022-12-29T06:37:30;44.88;;;23.50;;
54945;SDS011;40846;44.788;20.486;2022-12-29T06:39:56;46.22;;;23.15;;
54945;SDS011;40846;44.788;20.486;2022-12-29T06:42:22;46.28;;;23.98;;
54945;SDS011;40846;44.788;20.486;2022-12-29T06:44:48;50.30;;;23.10;;
54945;SDS011;40846;44.788;20.486;2022-12-29T06:47:14;54.92;;;23.85;;
54945;SDS011;40846;44.788;20.486;2022-12-29T06:49:39;51.38;;;23.90;;
54945;SDS011;40846;44.788;20.486;2022-12-29T06:52:05;54.92;;;24.75;;
54945;SDS011;40846;44.788;20.486;2022-12-29T06:54:31;47.38;;;23.00;;
54945;SDS011;40846;44.788;20.486;2022-12-29T06:56:57;52.00;;;24.02;;
54945;SDS011;40846;44.788;20.486;2022-12-29T06:59:23;56.15;;;27.30;;
54945;SDS011;40846;44.788;20.486;2022-12-29T07:01:49;56.75;;;25.67;;
54945;SDS011;40846;44.788;20.486;2022-12-29T07:04:15;57.67;;;25.48;;
54945;SDS011;40846;44.788;20.486;2022-12-29T07:06:41;85.68;;;38.22;;
54945;SDS011;40846;44.788;20.486;2022-12-29T07:09:07;69.68;;;35.78;;
54945;SDS011;40846;44.788;20.486;2022-12-29T07:11:33;80.45;;;33.45;;
54945;SDS011;40846;44.788;20.486;2022-12-29T07:13:59;80.53;;;35.47;;
54945;SDS011;40846;44.788;20.486;2022-12-29T07:16:25;54.70;;;24.63;;
54945;SDS011;40846;44.788;20.486;2022-12-29T07:18:51;46.40;;;23.13;;
54945;SDS011;40846;44.788;20.486;2022-12-29T07:21:17;59.17;;;25.35;;
54945;SDS011;40846;44.788;20.486;2022-12-29T07:23:43;53.35;;;26.20;;
54945;SDS011;40846;44.788;20.486;2022-12-29T07:26:10;52.65;;;25.55;;
54945;SDS011;40846;44.788;20.486;2022-12-29T07:28:38;60.75;;;26.35;;
54945;SDS011;40846;44.788;20.486;2022-12-29T07:31:04;61.10;;;28.75;;
54945;SDS011;40846;44.788;20.486;2022-12-29T07:33:38;85.97;;;32.53;;
54945;SDS011;40846;44.788;20.486;2022-12-29T07:36:04;59.50;;;26.38;;
54945;SDS011;40846;44.788;20.486;2022-12-29T07:38:30;55.75;;;25.15;;
54945;SDS011;40846;44.788;20.486;2022-12-29T07:40:57;51.67;;;22.98;;
54945;SDS011;40846;44.788;20.486;2022-12-29T07:43:23;53.22;;;23.15;;
54945;SDS011;40846;44.788;20.486;2022-12-29T07:45:49;49.55;;;21.67;;
54945;SDS011;40846;44.788;20.486;2022-12-29T07:48:14;52.20;;;20.75;;
54945;SDS011;40846;44.788;20.486;2022-12-29T07:50:40;47.75;;;22.00;;
54945;SDS011;40846;44.788;20.486;2022-12-29T07:53:06;46.15;;;20.58;;
54945;SDS011;40846;44.788;20.486;2022-12-29T07:55:32;54.47;;;21.73;;
54945;SDS011;40846;44.788;20.486;2022-12-29T07:57:58;65.97;;;23.70;;
54945;SDS011;40846;44.788;20.486;2022-12-29T08:00:24;50.72;;;21.77;;
54945;SDS011;40846;44.788;20.486;2022-12-29T08:02:50;66.40;;;21.70;;
54945;SDS011;40846;44.788;20.486;2022-12-29T08:05:16;52.10;;;20.80;;
54945;SDS011;40846;44.788;20.486;2022-12-29T08:07:43;49.97;;;19.83;;
54945;SDS011;40846;44.788;20.486;2022-12-29T08:10:09;65.22;;;21.23;;
54945;SDS011;40846;44.788;20.486;2022-12-29T08:12:37;43.42;;;20.92;;
54945;SDS011;40846;44.788;20.486;2022-12-29T08:15:03;44.38;;;19.45;;
54945;SDS011;40846;44.788;20.486;2022-12-29T08:17:30;49.60;;;21.08;;
54945;SDS011;40846;44.788;20.486;2022-12-29T08:19:56;40.75;;;18.95;;
54945;SDS011;40846;44.788;20.486;2022-12-29T08:22:22;45.30;;;21.45;;
54945;SDS011;40846;44.788;20.486;2022-12-29T08:24:48;46.45;;;21.58;;
54945;SDS011;40846;44.788;20.486;2022-12-29T08:27:14;45.33;;;21.70;;
54945;SDS011;40846;44.788;20.486;2022-12-29T08:29:40;51.53;;;21.13;;
54945;SDS011;40846;44.788;20.486;2022-12-29T08:32:06;44.63;;;20.77;;
54945;SDS011;40846;44.788;20.486;2022-12-29T08:34:32;45.22;;;21.00;;
54945;SDS011;40846;44.788;20.486;2022-12-29T08:36:58;45.40;;;20.00;;
54945;SDS011;40846;44.788;20.486;2022-12-29T08:39:24;50.00;;;20.63;;
54945;SDS011;40846;44.788;20.486;2022-12-29T08:41:50;43.85;;;21.40;;
54945;SDS011;40846;44.788;20.486;2022-12-29T08:44:16;46.67;;;20.30;;
54945;SDS011;40846;44.788;20.486;2022-12-29T08:46:42;41.25;;;18.13;;
54945;SDS011;40846;44.788;20.486;2022-12-29T08:49:08;39.50;;;19.58;;
54945;SDS011;40846;44.788;20.486;2022-12-29T08:51:34;50.35;;;19.90;;
54945;SDS011;40846;44.788;20.486;2022-12-29T08:54:00;35.75;;;19.23;;
54945;SDS011;40846;44.788;20.486;2022-12-29T08:56:26;43.65;;;21.65;;
54945;SDS011;40846;44.788;20.486;2022-12-29T08:58:52;44.83;;;20.80;;
54945;SDS011;40846;44.788;20.486;2022-12-29T09:01:19;51.42;;;21.13;;
54945;SDS011;40846;44.788;20.486;2022-12-29T09:03:45;39.75;;;22.00;;
54945;SDS011;40846;44.788;20.486;2022-12-29T09:06:11;43.28;;;22.95;;
54945;SDS011;40846;44.788;20.486;2022-12-29T09:08:37;38.88;;;22.85;;
54945;SDS011;40846;44.788;20.486;2022-12-29T09:11:12;47.78;;;23.88;;
54945;SDS011;40846;44.788;20.486;2022-12-29T09:13:38;51.83;;;25.45;;
54945;SDS011;40846;44.788;20.486;2022-12-29T09:16:05;50.88;;;23.30;;
54945;SDS011;40846;44.788;20.486;2022-12-29T09:18:31;44.10;;;23.75;;
54945;SDS011;40846;44.788;20.486;2022-12-29T09:20:57;50.10;;;24.05;;
54945;SDS011;40846;44.788;20.486;2022-12-29T09:23:24;38.17;;;21.40;;
54945;SDS011;40846;44.788;20.486;2022-12-29T09:25:50;33.95;;;18.35;;
54945;SDS011;40846;44.788;20.486;2022-12-29T09:28:16;37.08;;;19.45;;
54945;SDS011;40846;44.788;20.486;2022-12-29T09:30:42;37.20;;;19.02;;
54945;SDS011;40846;44.788;20.486;2022-12-29T09:33:08;32.63;;;17.08;;
54945;SDS011;40846;44.788;20.486;2022-12-29T09:35:34;46.85;;;18.33;;
54945;SDS011;40846;44.788;20.486;2022-12-29T09:38:01;38.15;;;18.40;;
54945;SDS011;40846;44.788;20.486;2022-12-29T09:40:28;28.40;;;14.75;;
54945;SDS011;40846;44.788;20.486;2022-12-29T09:43:02;38.33;;;19.45;;
54945;SDS011;40846;44.788;20.486;2022-12-29T09:45:32;40.42;;;17.55;;
54945;SDS011;40846;44.788;20.486;2022-12-29T09:48:03;34.22;;;15.82;;
54945;SDS011;40846;44.788;20.486;2022-12-29T09:50:30;40.20;;;17.33;;
54945;SDS011;40846;44.788;20.486;2022-12-29T09:55:33;29.63;;;11.95;;
54945;SDS011;40846;44.788;20.486;2022-12-29T09:58:05;35.88;;;15.50;;
54945;SDS011;40846;44.788;20.486;2022-12-29T10:00:54;18.42;;;10.98;;
54945;SDS011;40846;44.788;20.486;2022-12-29T10:03:23;13.90;;;8.70;;
54945;SDS011;40846;44.788;20.486;2022-12-29T10:05:52;16.48;;;7.97;;
54945;SDS011;40846;44.788;20.486;2022-12-29T10:11:03;10.88;;;6.57;;
54945;SDS011;40846;44.788;20.486;2022-12-29T10:23:45;10.63;;;5.60;;
54945;SDS011;40846;44.788;20.486;2022-12-29T10:26:14;10.07;;;4.93;;
54945;SDS011;40846;44.788;20.486;2022-12-29T10:28:51;10.80;;;4.88;;
54945;SDS011;40846;44.788;20.486;2022-12-29T10:31:20;10.15;;;4.78;;
54945;SDS011;40846;44.788;20.486;2022-12-29T10:33:49;11.10;;;4.90;;
54945;SDS011;40846;44.788;20.486;2022-12-29T10:36:17;8.63;;;4.47;;
54945;SDS011;40846;44.788;20.486;2022-12-29T10:41:13;17.23;;;6.82;;
54945;SDS011;40846;44.788;20.486;2022-12-29T10:43:51;15.02;;;5.93;;
54945;SDS011;40846;44.788;20.486;2022-12-29T10:46:20;11.73;;;6.20;;
54945;SDS011;40846;44.788;20.486;2022-12-29T10:48:47;12.27;;;5.40;;
54945;SDS011;40846;44.788;20.486;2022-12-29T10:51:25;7.90;;;4.45;;
54945;SDS011;40846;44.788;20.486;2022-12-29T10:53:51;7.72;;;4.72;;
54945;SDS011;40846;44.788;20.486;2022-12-29T10:56:35;7.72;;;3.20;;
54945;SDS011;40846;44.788;20.486;2022-12-29T10:59:03;6.20;;;3.30;;
54945;SDS011;40846;44.788;20.486;2022-12-29T11:01:35;7.00;;;3.20;;
54945;SDS011;40846;44.788;20.486;2022-12-29T11:04:13;10.55;;;4.53;;
54945;SDS011;40846;44.788;20.486;2022-12-29T11:06:43;8.23;;;4.03;;
54945;SDS011;40846;44.788;20.486;2022-12-29T11:09:12;9.98;;;4.97;;
54945;SDS011;40846;44.788;20.486;2022-12-29T11:11:40;8.32;;;3.28;;
54945;SDS011;40846;44.788;20.486;2022-12-29T11:14:12;10.43;;;4.07;;
54945;SDS011;40846;44.788;20.486;2022-12-29T11:16:39;8.65;;;4.20;;
54945;SDS011;40846;44.788;20.486;2022-12-29T11:19:12;14.30;;;5.20;;
54945;SDS011;40846;44.788;20.486;2022-12-29T11:21:45;6.68;;;3.60;;
54945;SDS011;40846;44.788;20.486;2022-12-29T11:24:21;8.50;;;3.85;;
54945;SDS011;40846;44.788;20.486;2022-12-29T11:26:51;8.80;;;4.38;;
54945;SDS011;40846;44.788;20.486;2022-12-29T11:29:23;9.27;;;3.88;;
54945;SDS011;40846;44.788;20.486;2022-12-29T11:31:50;11.15;;;5.20;;
54945;SDS011;40846;44.788;20.486;2022-12-29T11:34:18;11.40;;;5.25;;
54945;SDS011;40846;44.788;20.486;2022-12-29T11:36:45;7.68;;;3.75;;
54945;SDS011;40846;44.788;20.486;2022-12-29T11:39:26;8.98;;;4.07;;
54945;SDS011;40846;44.788;20.486;2022-12-29T11:41:52;8.02;;;2.67;;
54945;SDS011;40846;44.788;20.486;2022-12-29T11:44:19;6.63;;;3.20;;
54945;SDS011;40846;44.788;20.486;2022-12-29T11:46:46;4.97;;;2.47;;
54945;SDS011;40846;44.788;20.486;2022-12-29T11:49:13;5.22;;;2.45;;
54945;SDS011;40846;44.788;20.486;2022-12-29T11:51:48;10.47;;;4.33;;
54945;SDS011;40846;44.788;20.486;2022-12-29T11:54:19;10.82;;;3.70;;
54945;SDS011;40846;44.788;20.486;2022-12-29T11:56:47;14.25;;;3.50;;
54945;SDS011;40846;44.788;20.486;2022-12-29T12:01:53;4.68;;;2.45;;
54945;SDS011;40846;44.788;20.486;2022-12-29T12:04:20;6.22;;;2.75;;
54945;SDS011;40846;44.788;20.486;2022-12-29T12:09:21;13.75;;;4.30;;
54945;SDS011;40846;44.788;20.486;2022-12-29T12:11:49;11.43;;;5.05;;
54945;SDS011;40846;44.788;20.486;2022-12-29T12:14:23;19.35;;;5.82;;
54945;SDS011;40846;44.788;20.486;2022-12-29T12:20:01;13.25;;;4.30;;
54945;SDS011;40846;44.788;20.486;2022-12-29T12:22:38;16.10;;;4.93;;
54945;SDS011;40846;44.788;20.486;2022-12-29T12:25:13;11.15;;;3.78;;
54945;SDS011;40846;44.788;20.486;2022-12-29T12:27:51;10.18;;;4.28;;
54945;SDS011;40846;44.788;20.486;2022-12-29T12:30:21;14.20;;;5.93;;
54945;SDS011;40846;44.788;20.486;2022-12-29T12:33:12;9.52;;;5.18;;
54945;SDS011;40846;44.788;20.486;2022-12-29T12:56:27;8.73;;;4.60;;
54945;SDS011;40846;44.788;20.486;2022-12-29T12:59:03;12.43;;;4.55;;
54945;SDS011;40846;44.788;20.486;2022-12-29T13:12:18;11.95;;;4.90;;
54945;SDS011;40846;44.788;20.486;2022-12-29T13:20:06;12.95;;;5.30;;
54945;SDS011;40846;44.788;20.486;2022-12-29T13:22:38;14.55;;;5.43;;
54945;SDS011;40846;44.788;20.486;2022-12-29T13:27:46;19.23;;;4.25;;
54945;SDS011;40846;44.788;20.486;2022-12-29T13:30:20;14.50;;;6.55;;
54945;SDS011;40846;44.788;20.486;2022-12-29T13:32:56;17.92;;;5.63;;
54945;SDS011;40846;44.788;20.486;2022-12-29T13:35:35;13.35;;;6.03;;
54945;SDS011;40846;44.788;20.486;2022-12-29T13:40:38;14.40;;;4.95;;
54945;SDS011;40846;44.788;20.486;2022-12-29T13:43:05;12.70;;;6.05;;
54945;SDS011;40846;44.788;20.486;2022-12-29T13:45:31;15.65;;;6.82;;
54945;SDS011;40846;44.788;20.486;2022-12-29T13:50:28;18.13;;;8.25;;
54945;SDS011;40846;44.788;20.486;2022-12-29T13:57:58;19.55;;;8.38;;
54945;SDS011;40846;44.788;20.486;2022-12-29T14:00:27;16.33;;;7.90;;
54945;SDS011;40846;44.788;20.486;2022-12-29T14:05:28;22.92;;;9.70;;
54945;SDS011;40846;44.788;20.486;2022-12-29T14:07:59;28.60;;;12.00;;
54945;SDS011;40846;44.788;20.486;2022-12-29T14:10:27;28.10;;;11.25;;
54945;SDS011;40846;44.788;20.486;2022-12-29T14:13:02;24.40;;;9.25;;
54945;SDS011;40846;44.788;20.486;2022-12-29T14:15:29;21.88;;;9.82;;
54945;SDS011;40846;44.788;20.486;2022-12-29T14:18:09;21.77;;;9.90;;
54945;SDS011;40846;44.788;20.486;2022-12-29T14:20:36;20.87;;;10.40;;
54945;SDS011;40846;44.788;20.486;2022-12-29T14:28:01;26.83;;;11.20;;
54945;SDS011;40846;44.788;20.486;2022-12-29T14:30:47;31.83;;;13.02;;
54945;SDS011;40846;44.788;20.486;2022-12-29T14:33:14;34.33;;;15.82;;
54945;SDS011;40846;44.788;20.486;2022-12-29T14:35:41;36.53;;;15.20;;
54945;SDS011;40846;44.788;20.486;2022-12-29T14:38:41;35.55;;;15.48;;
54945;SDS011;40846;44.788;20.486;2022-12-29T14:44:01;37.03;;;15.10;;
54945;SDS011;40846;44.788;20.486;2022-12-29T14:46:54;42.75;;;16.20;;
54945;SDS011;40846;44.788;20.486;2022-12-29T14:49:16;29.02;;;14.02;;
54945;SDS011;40846;44.788;20.486;2022-12-29T14:51:42;29.95;;;13.73;;
54945;SDS011;40846;44.788;20.486;2022-12-29T14:57:01;36.85;;;14.43;;
54945;SDS011;40846;44.788;20.486;2022-12-29T14:59:29;33.15;;;13.73;;
54945;SDS011;40846;44.788;20.486;2022-12-29T15:01:56;26.95;;;13.35;;
54945;SDS011;40846;44.788;20.486;2022-12-29T15:04:27;37.33;;;16.10;;
54945;SDS011;40846;44.788;20.486;2022-12-29T15:06:55;37.13;;;19.08;;
54945;SDS011;40846;44.788;20.486;2022-12-29T15:09:24;38.35;;;15.75;;
54945;SDS011;40846;44.788;20.486;2022-12-29T15:11:52;44.65;;;17.13;;
54945;SDS011;40846;44.788;20.486;2022-12-29T15:14:29;43.58;;;18.67;;
54945;SDS011;40846;44.788;20.486;2022-12-29T15:16:55;39.33;;;17.75;;
54945;SDS011;40846;44.788;20.486;2022-12-29T15:19:24;40.97;;;18.77;;
54945;SDS011;40846;44.788;20.486;2022-12-29T15:21:50;50.00;;;20.75;;
54945;SDS011;40846;44.788;20.486;2022-12-29T15:24:17;45.97;;;20.73;;
54945;SDS011;40846;44.788;20.486;2022-12-29T15:26:45;47.95;;;19.17;;
54945;SDS011;40846;44.788;20.486;2022-12-29T15:29:31;45.45;;;22.15;;
54945;SDS011;40846;44.788;20.486;2022-12-29T15:31:58;47.83;;;23.63;;
54945;SDS011;40846;44.788;20.486;2022-12-29T15:34:25;64.47;;;25.10;;
54945;SDS011;40846;44.788;20.486;2022-12-29T15:36:55;60.15;;;29.02;;
54945;SDS011;40846;44.788;20.486;2022-12-29T15:39:27;56.13;;;24.38;;
54945;SDS011;40846;44.788;20.486;2022-12-29T15:41:55;50.15;;;23.80;;
54945;SDS011;40846;44.788;20.486;2022-12-29T15:44:45;52.05;;;26.55;;
54945;SDS011;40846;44.788;20.486;2022-12-29T15:47:15;62.50;;;26.48;;
54945;SDS011;40846;44.788;20.486;2022-12-29T15:49:43;57.63;;;28.77;;
54945;SDS011;40846;44.788;20.486;2022-12-29T15:52:09;62.25;;;28.70;;
54945;SDS011;40846;44.788;20.486;2022-12-29T15:54:36;55.42;;;26.48;;
54945;SDS011;40846;44.788;20.486;2022-12-29T15:57:04;69.45;;;29.35;;
54945;SDS011;40846;44.788;20.486;2022-12-29T15:59:45;62.20;;;29.63;;
54945;SDS011;40846;44.788;20.486;2022-12-29T16:02:13;65.45;;;30.42;;
54945;SDS011;40846;44.788;20.486;2022-12-29T16:04:39;64.53;;;31.63;;
54945;SDS011;40846;44.788;20.486;2022-12-29T16:07:27;74.03;;;33.85;;
54945;SDS011;40846;44.788;20.486;2022-12-29T16:09:55;79.43;;;33.75;;
54945;SDS011;40846;44.788;20.486;2022-12-29T16:12:34;72.93;;;31.88;;
54945;SDS011;40846;44.788;20.486;2022-12-29T16:15:01;77.07;;;32.75;;
54945;SDS011;40846;44.788;20.486;2022-12-29T16:17:29;71.95;;;33.55;;
54945;SDS011;40846;44.788;20.486;2022-12-29T16:19:56;81.53;;;34.35;;
54945;SDS011;40846;44.788;20.486;2022-12-29T16:22:28;74.53;;;33.53;;
54945;SDS011;40846;44.788;20.486;2022-12-29T16:24:59;81.78;;;34.17;;
54945;SDS011;40846;44.788;20.486;2022-12-29T16:27:31;85.50;;;36.27;;
54945;SDS011;40846;44.788;20.486;2022-12-29T16:29:58;82.80;;;32.72;;
54945;SDS011;40846;44.788;20.486;2022-12-29T16:32:29;87.80;;;37.20;;
54945;SDS011;40846;44.788;20.486;2022-12-29T16:35:05;76.68;;;32.95;;
54945;SDS011;40846;44.788;20.486;2022-12-29T16:37:35;69.20;;;31.33;;
54945;SDS011;40846;44.788;20.486;2022-12-29T16:42:47;70.85;;;30.63;;
54945;SDS011;40846;44.788;20.486;2022-12-29T16:50:33;66.15;;;33.55;;